Details for WeGo Airways at EGLL




Go Back


Latest METAR
Local Time

EGLL 250450Z AUTO VRB03KT 5000 -DZ BKN006/// OVC015/// //////TCU 13/12 Q1017 TEMPO 4000

25/05/2018, 06:08:28

Description
Results
WeGo Airways Logo
Number of Pilots based at EGLL
2 Pilots Based here
Number of WeGo Airways Flights Departed from EGLL
20 Flights Departed
Number of WeGo Airways Flights Arrived at EGLL
19 Flights Arrived
Number of WeGo Airways Schedules Departing from EGLL
8 Schedules
Number of WeGo Airways Schedules Arriving at EGLL
3 Schedules
Number of WeGo Airways Schedules Departing from EGLL availible today
8 Schedules Today
Number of WeGo Airways Schedules Arriving at EGLL availible today
3 Schedules Today
Average Landing Rate at EGLL
-191 fpm
WeGo Airways Average Landing Rate at EGLL
-179 fpm
Total Fuel Purchased at EGLL by WeGo Airways
718,319.37 kgs / 1,583,606.88 lbs

Pilots Based at EGLL


Pilot ID
Pilot Name
Pilot Rank
No. of Flights
No. of Flying Hours
Hashim Iqbal
0
0
Chris Nicholson
40
114.17
Content